createdAt,value
2023-11-01T00:00:32.221Z,3.28
2023-11-01T00:03:21.713Z,3.50
2023-11-01T00:05:52.141Z,4.72
2023-11-01T00:08:21.374Z,3.17
2023-11-01T00:10:50.320Z,3.50
2023-11-01T00:13:19.691Z,1.73
2023-11-01T00:15:48.651Z,4.00
2023-11-01T00:18:18.047Z,3.00
2023-11-01T00:20:47.104Z,2.53
2023-11-01T00:23:17.818Z,5.40
2023-11-01T00:25:46.912Z,3.08
2023-11-01T00:28:16.340Z,1.95
2023-11-01T00:30:45.388Z,2.92
2023-11-01T00:33:15.175Z,1.80
2023-11-01T00:35:44.311Z,2.30
2023-11-01T00:38:13.734Z,7.32
2023-11-01T00:40:44.097Z,2.72
2023-11-01T00:43:13.489Z,1.83
2023-11-01T00:45:42.531Z,2.72
2023-11-01T00:48:11.957Z,4.10
2023-11-01T00:50:41.142Z,3.13
2023-11-01T00:53:11.505Z,6.82
2023-11-01T00:55:40.504Z,4.13
2023-11-01T00:58:11.282Z,2.30
2023-11-01T01:00:40.230Z,5.40
2023-11-01T01:03:11.950Z,3.42
2023-11-01T01:05:42.891Z,3.95
2023-11-01T01:08:12.423Z,2.30
2023-11-01T01:10:41.402Z,2.95
2023-11-01T01:13:12.150Z,4.63
2023-11-01T01:15:41.191Z,2.22
2023-11-01T01:18:10.778Z,3.50
2023-11-01T01:20:40.392Z,3.08
2023-11-01T01:23:10.747Z,1.90
2023-11-01T01:25:39.700Z,3.03
2023-11-01T01:28:09.630Z,2.88
2023-11-01T01:30:40.179Z,6.85
2023-11-01T01:33:09.508Z,3.65
2023-11-01T01:35:38.586Z,9.88
2023-11-01T01:38:08.042Z,5.30
2023-11-01T01:40:37.199Z,2.95
2023-11-01T01:43:18.076Z,4.70
2023-11-01T01:46:00.999Z,7.10
2023-11-01T01:48:30.649Z,3.42
2023-11-01T01:50:59.707Z,2.50
2023-11-01T01:53:29.529Z,2.78
2023-11-01T01:55:59.170Z,4.38
2023-11-01T01:58:29.627Z,2.90
2023-11-01T02:01:00.950Z,3.28
2023-11-01T02:03:30.767Z,5.40
2023-11-01T02:06:00.129Z,7.90
2023-11-01T02:08:29.672Z,2.65
2023-11-01T02:10:58.846Z,2.85
2023-11-01T02:13:28.194Z,3.40
2023-11-01T02:15:57.366Z,5.97
2023-11-01T02:18:28.169Z,3.33
2023-11-01T02:20:57.680Z,5.85
2023-11-01T02:23:36.401Z,2.35
2023-11-01T02:26:05.874Z,4.10
2023-11-01T02:28:35.305Z,3.13
2023-11-01T02:31:04.765Z,3.00
2023-11-01T02:33:34.020Z,2.75
2023-11-01T02:36:03.731Z,3.92
2023-11-01T02:38:34.407Z,4.47
2023-11-01T02:41:05.005Z,4.45
2023-11-01T02:43:34.454Z,2.67
2023-11-01T02:46:04.393Z,4.90
2023-11-01T02:48:33.799Z,5.00
2023-11-01T02:51:03.111Z,3.72
2023-11-01T02:53:32.392Z,6.07
2023-11-01T02:56:02.722Z,4.43
2023-11-01T02:58:32.068Z,3.27
2023-11-01T03:01:00.992Z,2.53
2023-11-01T03:03:30.497Z,6.95
2023-11-01T03:05:59.594Z,2.95
2023-11-01T03:08:29.010Z,2.25
2023-11-01T03:10:57.959Z,4.80
2023-11-01T03:13:28.580Z,1.73
2023-11-01T03:15:57.831Z,4.35
2023-11-01T03:18:27.236Z,5.15
2023-11-01T03:20:56.319Z,4.72
2023-11-01T03:23:25.685Z,6.57
2023-11-01T03:25:54.684Z,3.25
2023-11-01T03:28:23.988Z,4.05
2023-11-01T03:30:54.391Z,3.65
2023-11-01T03:33:23.894Z,4.40
2023-11-01T03:35:52.956Z,2.22
2023-11-01T03:38:22.564Z,2.50
2023-11-01T03:40:51.609Z,3.80
2023-11-01T03:43:20.847Z,3.70
2023-11-01T03:45:50.921Z,4.80
2023-11-01T03:48:21.697Z,3.05
2023-11-01T03:50:50.856Z,2.95
2023-11-01T03:53:20.270Z,2.30
2023-11-01T03:55:49.380Z,2.42
2023-11-01T03:58:18.706Z,5.38
2023-11-01T04:00:47.773Z,1.95
2023-11-01T04:03:17.158Z,2.80
2023-11-01T04:05:47.601Z,4.50
2023-11-01T04:08:17.047Z,2.70
2023-11-01T04:10:45.011Z,4.18
2023-11-01T04:13:14.433Z,2.53
2023-11-01T04:15:43.566Z,3.08
2023-11-01T04:18:13.039Z,3.45
2023-11-01T04:20:42.106Z,2.45
2023-11-01T04:23:12.700Z,5.00
2023-11-01T04:25:42.571Z,4.32
2023-11-01T04:28:11.920Z,3.45
2023-11-01T04:30:41.896Z,1.85
2023-11-01T04:33:13.315Z,6.13
2023-11-01T04:35:42.418Z,4.57
2023-11-01T04:38:14.741Z,2.90
2023-11-01T04:40:44.117Z,2.38
2023-11-01T04:43:14.516Z,3.28
2023-11-01T04:45:43.561Z,5.80
2023-11-01T04:48:12.993Z,2.78
2023-11-01T04:50:42.147Z,3.75
2023-11-01T04:53:13.310Z,2.35
2023-11-01T04:55:43.396Z,4.70
2023-11-01T04:58:13.528Z,4.82
2023-11-01T05:00:42.497Z,9.40
2023-11-01T05:03:11.886Z,2.58
2023-11-01T05:05:40.937Z,2.88
2023-11-01T05:08:10.276Z,1.73
2023-11-01T05:10:40.687Z,1.63
2023-11-01T05:13:10.371Z,7.40
2023-11-01T05:15:40.824Z,2.22
2023-11-01T05:18:10.272Z,1.75
2023-11-01T05:20:40.304Z,6.13
2023-11-01T05:23:09.924Z,5.57
2023-11-01T05:25:40.877Z,6.75
2023-11-01T05:28:10.334Z,2.53
2023-11-01T05:30:39.395Z,4.95
2023-11-01T05:33:08.798Z,3.15
2023-11-01T05:35:38.253Z,4.45
2023-11-01T05:38:08.246Z,3.15
2023-11-01T05:40:37.500Z,3.13
2023-11-01T05:43:08.182Z,3.88
2023-11-01T05:45:37.119Z,7.07
2023-11-01T05:48:10.059Z,2.58
2023-11-01T05:50:42.522Z,4.43
2023-11-01T05:53:12.552Z,3.85
2023-11-01T05:55:54.594Z,3.05
2023-11-01T05:58:32.386Z,3.90
2023-11-01T06:01:02.344Z,3.45
2023-11-01T06:03:32.473Z,10.13
2023-11-01T06:06:01.708Z,5.47
2023-11-01T06:08:31.042Z,3.47
2023-11-01T06:11:00.130Z,4.55
2023-11-01T06:13:30.920Z,3.13
2023-11-01T06:16:06.162Z,2.75
2023-11-01T06:18:35.738Z,3.03
2023-11-01T06:21:06.051Z,5.47
2023-11-01T06:23:37.860Z,3.90
2023-11-01T06:26:07.086Z,2.70
2023-11-01T06:28:37.649Z,4.97
2023-11-01T06:31:06.855Z,4.78
2023-11-01T06:33:36.229Z,3.83
2023-11-01T06:36:06.424Z,1.15
2023-11-01T06:38:37.415Z,2.22
2023-11-01T06:41:07.448Z,4.00
2023-11-01T06:43:38.100Z,5.22
2023-11-01T06:46:07.312Z,4.07
2023-11-01T06:48:36.688Z,4.97
2023-11-01T06:51:06.317Z,1.67
2023-11-01T06:53:35.629Z,3.42
2023-11-01T06:56:05.872Z,2.78
2023-11-01T06:58:35.258Z,2.60
2023-11-01T07:01:07.396Z,3.10
2023-11-01T07:03:37.060Z,1.20
2023-11-01T07:06:08.093Z,3.80
2023-11-01T07:08:37.519Z,4.18
2023-11-01T07:11:06.800Z,4.75
2023-11-01T07:13:36.201Z,2.22
2023-11-01T07:16:07.844Z,1.83
2023-11-01T07:18:39.902Z,2.42
2023-11-01T07:21:11.230Z,3.30
2023-11-01T07:26:09.636Z,3.47
2023-11-01T07:28:39.212Z,1.92
2023-11-01T07:31:09.622Z,4.22
2023-11-01T07:33:39.086Z,2.22
2023-11-01T07:36:09.341Z,5.78
2023-11-01T07:38:42.504Z,4.35
2023-11-01T07:41:13.974Z,6.55
2023-11-01T07:43:43.383Z,2.05
2023-11-01T07:46:14.806Z,1.40
2023-11-01T07:48:44.677Z,2.95
2023-11-01T07:51:13.760Z,2.58
2023-11-01T07:53:43.194Z,2.67
2023-11-01T07:56:12.755Z,3.60
2023-11-01T07:58:42.222Z,3.42
2023-11-01T08:01:12.513Z,1.52
2023-11-01T08:03:42.077Z,10.00
2023-11-01T08:06:11.457Z,4.88
2023-11-01T08:08:40.850Z,3.15
2023-11-01T08:11:10.001Z,2.47
2023-11-01T08:13:39.486Z,12.13
2023-11-01T08:16:09.376Z,4.50
2023-11-01T08:18:40.235Z,3.05
2023-11-01T08:21:09.252Z,3.88
2023-11-01T08:23:38.525Z,5.03
2023-11-01T08:26:07.562Z,6.68
2023-11-01T08:28:36.937Z,4.15
2023-11-01T08:31:06.160Z,3.92
2023-11-01T08:33:35.791Z,3.63
2023-11-01T08:36:07.083Z,3.33
2023-11-01T08:41:05.755Z,3.58
2023-11-01T08:43:35.218Z,2.38
2023-11-01T08:46:04.301Z,3.08
2023-11-01T08:48:33.621Z,2.95
2023-11-01T08:51:02.681Z,1.42
2023-11-01T08:53:33.720Z,3.35
2023-11-01T08:56:02.774Z,2.67
2023-11-01T08:58:32.442Z,2.80
2023-11-01T09:01:01.614Z,6.93
2023-11-01T09:03:31.309Z,5.93
2023-11-01T09:06:00.441Z,5.28
2023-11-01T09:08:29.888Z,3.47
2023-11-01T09:11:00.269Z,3.47
2023-11-01T09:13:29.564Z,3.47
2023-11-01T09:15:58.561Z,3.65
2023-11-01T09:18:27.919Z,2.60
2023-11-01T09:20:57.129Z,2.75
2023-11-01T09:23:26.578Z,3.15
2023-11-01T09:25:55.552Z,2.10
2023-11-01T09:28:26.177Z,2.13
2023-11-01T09:30:55.148Z,2.97
2023-11-01T09:33:25.408Z,2.75
2023-11-01T09:35:54.625Z,1.92
2023-11-01T09:38:24.191Z,3.50
2023-11-01T09:40:54.312Z,2.70
2023-11-01T09:43:27.011Z,5.05
2023-11-01T09:45:56.131Z,2.03
2023-11-01T09:48:26.237Z,3.97
2023-11-01T09:50:59.594Z,2.50
2023-11-01T09:53:29.076Z,3.38
2023-11-01T09:55:59.037Z,5.95
2023-11-01T09:58:30.714Z,4.85
2023-11-01T10:01:00.306Z,3.15
2023-11-01T10:03:29.777Z,6.25
2023-11-01T10:05:58.945Z,3.65
2023-11-01T10:08:28.469Z,4.95
2023-11-01T10:11:29.099Z,4.82
2023-11-01T10:14:01.838Z,3.30
2023-11-01T10:16:32.606Z,1.85
2023-11-01T10:19:04.492Z,3.10
2023-11-01T10:21:34.038Z,5.72
2023-11-01T10:24:04.715Z,2.85
2023-11-01T10:26:33.761Z,4.82
2023-11-01T10:29:05.732Z,3.58
2023-11-01T10:34:13.485Z,3.40
2023-11-01T10:36:53.525Z,3.88
2023-11-01T10:39:24.041Z,3.25
2023-11-01T10:41:55.951Z,4.35
2023-11-01T10:44:27.687Z,5.10
2023-11-01T10:49:27.605Z,2.58
2023-11-01T10:51:58.905Z,3.50
2023-11-01T10:56:59.498Z,5.15
2023-11-01T10:59:36.835Z,4.97
2023-11-01T11:02:18.329Z,5.43
2023-11-01T11:04:55.165Z,4.22
2023-11-01T11:07:34.907Z,6.82
2023-11-01T11:10:27.251Z,3.45
2023-11-01T11:13:27.642Z,4.68
2023-11-01T11:16:02.624Z,3.97
2023-11-01T11:18:57.298Z,2.40
2023-11-01T11:22:03.507Z,2.33
2023-11-01T11:24:56.789Z,2.33
2023-11-01T11:27:52.350Z,4.97
2023-11-01T11:31:01.933Z,11.23
2023-11-01T11:33:33.281Z,4.32
2023-11-01T11:36:17.353Z,4.90
2023-11-01T11:38:51.722Z,4.10
2023-11-01T11:41:21.885Z,4.10
2023-11-01T11:44:08.809Z,5.72
2023-11-01T11:46:41.597Z,5.03
2023-11-01T11:49:21.637Z,3.53
2023-11-01T11:51:53.244Z,2.53
2023-11-01T11:54:24.013Z,2.85
2023-11-01T11:56:57.623Z,2.78
2023-11-01T11:59:28.315Z,2.97
2023-11-01T12:02:07.988Z,1.98
2023-11-01T12:04:39.739Z,4.10
2023-11-01T12:07:16.876Z,2.97
2023-11-01T12:09:50.331Z,3.55
2023-11-01T12:12:19.713Z,3.65
2023-11-01T12:14:58.435Z,4.57
2023-11-01T12:17:29.228Z,6.15
2023-11-01T12:19:59.650Z,3.80
2023-11-01T12:22:28.741Z,2.97
2023-11-01T12:24:58.124Z,4.53
2023-11-01T12:27:33.418Z,2.30
2023-11-01T12:30:04.135Z,2.20
2023-11-01T12:32:36.147Z,3.97
2023-11-01T12:35:10.620Z,3.47
2023-11-01T12:37:43.145Z,2.95
2023-11-01T12:40:13.860Z,3.85
2023-11-01T12:42:44.945Z,3.45
2023-11-01T12:45:14.807Z,3.45
2023-11-01T12:47:47.157Z,4.25
2023-11-01T12:50:20.675Z,4.93
2023-11-01T12:52:50.597Z,4.88
2023-11-01T12:55:21.225Z,2.35
2023-11-01T12:57:51.798Z,2.53
2023-11-01T13:00:22.795Z,5.18
2023-11-01T13:02:54.319Z,2.30
2023-11-01T13:05:24.065Z,3.15
2023-11-01T13:07:58.210Z,3.38
2023-11-01T13:10:28.593Z,4.60
2023-11-01T13:12:57.625Z,3.10
2023-11-01T13:15:27.523Z,7.57
2023-11-01T13:17:58.771Z,4.05
2023-11-01T13:22:57.069Z,2.65
2023-11-01T13:25:26.277Z,3.38
2023-11-01T13:27:55.207Z,4.85
2023-11-01T13:30:24.624Z,2.95
2023-11-01T13:32:53.685Z,2.97
2023-11-01T13:35:24.555Z,2.97
2023-11-01T13:37:53.527Z,4.13
2023-11-01T13:40:22.786Z,2.70
2023-11-01T13:42:51.766Z,3.15
2023-11-01T13:45:21.189Z,2.28
2023-11-01T13:47:51.236Z,4.50
2023-11-01T13:50:20.675Z,3.25
2023-11-01T13:52:51.272Z,3.22
2023-11-01T13:55:21.387Z,3.25
2023-11-01T13:57:50.427Z,2.30
2023-11-01T14:00:20.157Z,3.58
2023-11-01T14:02:49.287Z,4.35
2023-11-01T14:05:19.416Z,5.50
2023-11-01T14:07:51.908Z,3.00
2023-11-01T14:10:21.465Z,4.45
2023-11-01T14:12:50.576Z,5.95
2023-11-01T14:15:20.552Z,5.03
2023-11-01T14:17:50.111Z,5.63
2023-11-01T14:20:20.138Z,2.42
2023-11-01T14:22:52.620Z,4.90
2023-11-01T14:25:22.265Z,6.25
2023-11-01T14:27:52.047Z,4.53
2023-11-01T14:30:21.748Z,4.22
2023-11-01T14:32:51.831Z,5.30
2023-11-01T14:35:21.497Z,4.15
2023-11-01T14:37:52.021Z,5.45
2023-11-01T14:40:21.346Z,6.10
2023-11-01T14:42:51.270Z,2.60
2023-11-01T14:45:20.643Z,2.88
2023-11-01T14:47:50.789Z,3.97
2023-11-01T14:50:20.349Z,5.22
2023-11-01T14:52:50.513Z,4.18
2023-11-01T14:55:21.732Z,3.60
2023-11-01T14:57:50.876Z,5.63
2023-11-01T15:00:20.958Z,4.22
2023-11-01T15:02:50.080Z,4.45
2023-11-01T15:05:20.414Z,4.28
2023-11-01T15:07:49.388Z,5.75
2023-11-01T15:10:20.378Z,6.25
2023-11-01T15:12:49.378Z,4.90
2023-11-01T15:15:19.021Z,5.82
2023-11-01T15:17:50.207Z,4.10
2023-11-01T15:22:50.803Z,5.18
2023-11-01T15:25:21.658Z,5.10
2023-11-01T15:27:50.799Z,7.05
2023-11-01T15:30:20.987Z,8.23
2023-11-01T15:32:50.430Z,7.95
2023-11-01T15:35:20.844Z,5.18
2023-11-01T15:37:49.830Z,6.65
2023-11-01T15:40:20.648Z,7.43
2023-11-01T15:42:51.237Z,6.97
2023-11-01T15:45:20.694Z,6.55
2023-11-01T15:47:49.738Z,7.43
2023-11-01T15:50:19.440Z,8.05
2023-11-01T15:52:48.519Z,8.68
2023-11-01T15:55:18.566Z,7.53
2023-11-01T15:57:49.990Z,9.93
2023-11-01T16:00:19.619Z,9.88
2023-11-01T16:02:49.101Z,8.15
2023-11-01T16:05:19.535Z,7.88
2023-11-01T16:07:48.564Z,12.63
2023-11-01T16:10:18.145Z,8.00
2023-11-01T16:12:48.569Z,11.52
2023-11-01T16:15:20.740Z,10.93
2023-11-01T16:17:52.071Z,12.63
2023-11-01T16:20:21.411Z,13.35
2023-11-01T16:22:52.445Z,10.70
2023-11-01T16:25:21.779Z,13.30
2023-11-01T16:27:52.153Z,10.60
2023-11-01T16:30:21.817Z,9.70
2023-11-01T16:32:57.099Z,15.30
2023-11-01T16:35:27.483Z,12.57
2023-11-01T16:37:56.465Z,15.15
2023-11-01T16:40:26.462Z,11.93
2023-11-01T16:42:56.754Z,16.55
2023-11-01T16:45:26.538Z,18.77
2023-11-01T16:47:59.084Z,20.63
2023-11-01T16:50:54.463Z,28.58
2023-11-01T16:53:23.695Z,35.97
2023-11-01T16:55:55.165Z,44.05
2023-11-01T16:58:25.552Z,58.67
2023-11-01T17:00:55.019Z,46.77
2023-11-01T17:03:24.240Z,51.47
2023-11-01T17:05:54.537Z,56.50
2023-11-01T17:08:24.269Z,70.78
2023-11-01T17:10:53.523Z,69.60
2023-11-01T17:13:24.867Z,71.78
2023-11-01T17:15:57.433Z,71.97
2023-11-01T17:18:26.806Z,79.18
2023-11-01T17:20:56.222Z,87.32
2023-11-01T17:23:25.420Z,78.50
2023-11-01T17:26:23.457Z,81.40
2023-11-01T17:28:54.546Z,89.03
2023-11-01T17:31:44.137Z,89.05
2023-11-01T17:34:14.799Z,91.35
2023-11-01T17:36:44.125Z,95.97
2023-11-01T17:39:19.004Z,88.05
2023-11-01T17:42:04.989Z,103.10
2023-11-01T17:44:38.733Z,94.68
2023-11-01T17:47:10.339Z,99.32
2023-11-01T17:49:54.359Z,92.60
2023-11-01T17:52:33.983Z,97.97
2023-11-01T17:55:08.166Z,91.43
2023-11-01T17:57:40.460Z,82.15
2023-11-01T18:00:12.088Z,96.93
2023-11-01T18:03:22.967Z,109.63
2023-11-01T18:05:54.045Z,101.15
2023-11-01T18:08:35.444Z,90.95
2023-11-01T18:11:08.656Z,84.63
2023-11-01T18:13:42.009Z,88.18
2023-11-01T18:16:13.385Z,81.05
2023-11-01T18:18:45.196Z,84.68
2023-11-01T18:21:21.537Z,92.72
2023-11-01T18:23:56.869Z,101.40
2023-11-01T18:26:27.045Z,132.85
2023-11-01T18:29:05.893Z,143.60
2023-11-01T18:31:42.059Z,143.93
2023-11-01T18:34:13.569Z,137.00
2023-11-01T18:36:47.191Z,155.85
2023-11-01T18:39:31.795Z,132.95
2023-11-01T18:42:02.515Z,135.23
2023-11-01T18:44:37.381Z,127.82
2023-11-01T18:47:12.343Z,140.13
2023-11-01T18:49:56.276Z,136.13
2023-11-01T18:52:27.180Z,116.68
2023-11-01T18:55:01.484Z,123.93
2023-11-01T18:57:36.358Z,122.40
2023-11-01T19:00:10.738Z,114.10
2023-11-01T19:03:07.242Z,123.65
2023-11-01T19:05:38.162Z,123.60
2023-11-01T19:08:07.637Z,116.18
2023-11-01T19:10:40.794Z,122.70
2023-11-01T19:13:10.320Z,119.18
2023-11-01T19:16:16.127Z,112.47
2023-11-01T19:18:51.502Z,103.70
2023-11-01T19:21:23.870Z,105.25
2023-11-01T19:24:02.117Z,104.20
2023-11-01T19:26:31.439Z,102.20
2023-11-01T19:29:02.288Z,87.93
2023-11-01T19:31:31.924Z,103.95
2023-11-01T19:34:02.826Z,93.15
2023-11-01T19:36:32.868Z,101.18
2023-11-01T19:39:07.924Z,108.25
2023-11-01T19:41:41.159Z,100.10
2023-11-01T19:44:13.638Z,105.03
2023-11-01T19:46:44.197Z,120.32
2023-11-01T19:49:15.052Z,121.50
2023-11-01T19:51:44.747Z,145.25
2023-11-01T19:54:13.944Z,158.93
2023-11-01T19:56:48.153Z,159.27
2023-11-01T19:59:20.022Z,163.93
2023-11-01T20:01:49.512Z,151.93
2023-11-01T20:04:20.302Z,147.85
2023-11-01T20:06:52.639Z,165.45
2023-11-01T20:09:23.618Z,159.15
2023-11-01T20:12:00.418Z,153.05
2023-11-01T20:14:36.428Z,146.13
2023-11-01T20:17:13.559Z,146.68
2023-11-01T20:19:44.742Z,155.65
2023-11-01T20:22:16.114Z,155.52
2023-11-01T20:24:50.753Z,150.35
2023-11-01T20:27:20.544Z,143.20
2023-11-01T20:29:49.655Z,137.57
2023-11-01T20:32:22.010Z,145.30
2023-11-01T20:37:25.509Z,138.07
2023-11-01T20:39:54.987Z,139.35
2023-11-01T20:42:27.337Z,129.20
2023-11-01T20:44:58.918Z,129.73
2023-11-01T20:47:29.475Z,138.30
2023-11-01T20:50:00.139Z,121.30
2023-11-01T20:52:29.693Z,115.40
2023-11-01T20:55:02.618Z,119.68
2023-11-01T20:57:35.233Z,119.32
2023-11-01T21:00:05.285Z,122.85
2023-11-01T21:02:36.261Z,110.82
2023-11-01T21:05:07.397Z,122.85
2023-11-01T21:10:08.244Z,84.88
2023-11-01T21:12:39.419Z,109.15
2023-11-01T21:15:11.524Z,86.13
2023-11-01T21:17:41.503Z,81.47
2023-11-01T21:20:12.770Z,81.10
2023-11-01T21:22:42.533Z,82.05
2023-11-01T21:25:12.493Z,83.88
2023-11-01T21:27:41.815Z,81.93
2023-11-01T21:30:11.950Z,91.60
2023-11-01T21:32:41.427Z,83.43
2023-11-01T21:35:11.961Z,80.85
2023-11-01T21:37:41.792Z,82.75
2023-11-01T21:40:12.481Z,79.07
2023-11-01T21:42:41.982Z,66.45
2023-11-01T21:45:16.486Z,74.63
2023-11-01T21:47:45.981Z,70.80
2023-11-01T21:50:48.841Z,69.03
2023-11-01T21:53:18.164Z,73.20
2023-11-01T21:55:54.665Z,70.00
2023-11-01T21:58:26.598Z,74.40
2023-11-01T22:00:59.668Z,66.55
2023-11-01T22:03:40.641Z,71.07
2023-11-01T22:06:13.693Z,66.82
2023-11-01T22:08:59.140Z,67.28
2023-11-01T22:11:30.592Z,68.88
2023-11-01T22:14:01.007Z,66.00
2023-11-01T22:16:31.747Z,56.35
2023-11-01T22:19:03.293Z,61.08
2023-11-01T22:21:38.580Z,53.55
2023-11-01T22:24:09.383Z,60.70
2023-11-01T22:26:38.453Z,55.88
2023-11-01T22:29:09.420Z,61.28
2023-11-01T22:31:52.135Z,67.18
2023-11-01T22:34:23.648Z,61.78
2023-11-01T22:36:54.853Z,63.70
2023-11-01T22:39:41.313Z,57.20
2023-11-01T22:42:12.816Z,59.83
2023-11-01T22:44:45.377Z,65.28
2023-11-01T22:47:15.208Z,62.17
2023-11-01T22:49:44.951Z,54.45
2023-11-01T22:52:15.286Z,54.05
2023-11-01T22:54:44.636Z,57.93
2023-11-01T22:57:13.746Z,58.33
2023-11-01T22:59:43.333Z,56.58
2023-11-01T23:02:14.739Z,65.32
2023-11-01T23:04:45.694Z,57.58
2023-11-01T23:07:16.236Z,56.38
2023-11-01T23:09:45.537Z,65.63
2023-11-01T23:12:14.576Z,65.18
2023-11-01T23:14:43.923Z,66.00
2023-11-01T23:17:13.004Z,64.38
2023-11-01T23:19:42.577Z,66.10
2023-11-01T23:22:12.188Z,57.25
2023-11-01T23:24:42.896Z,61.15
2023-11-01T23:27:12.757Z,58.95
2023-11-01T23:29:43.023Z,61.72
2023-11-01T23:32:13.611Z,55.85
2023-11-01T23:34:46.252Z,53.53
2023-11-01T23:37:23.497Z,59.28
2023-11-01T23:39:54.401Z,56.30
2023-11-01T23:42:23.371Z,54.30
2023-11-01T23:44:54.396Z,48.85
2023-11-01T23:47:44.696Z,50.67
2023-11-01T23:50:32.055Z,51.22
2023-11-01T23:53:02.503Z,48.05
2023-11-01T23:55:33.543Z,48.38
2023-11-01T23:58:02.899Z,46.28
